sensor_id;sensor_type;location;lat;lon;timestamp;P1;durP1;ratioP1;P2;durP2;ratioP2
17644;SDS011;8941;51.986;4.340;2022-08-20T00:00:07;1.80;;;1.70;;
17644;SDS011;8941;51.986;4.340;2022-08-20T00:02:39;1.93;;;1.73;;
17644;SDS011;8941;51.986;4.340;2022-08-20T00:05:08;3.13;;;2.90;;
17644;SDS011;8941;51.986;4.340;2022-08-20T00:07:44;2.90;;;2.70;;
17644;SDS011;8941;51.986;4.340;2022-08-20T00:10:19;2.97;;;2.17;;
17644;SDS011;8941;51.986;4.340;2022-08-20T00:13:01;3.50;;;3.07;;
17644;SDS011;8941;51.986;4.340;2022-08-20T00:15:31;3.03;;;2.33;;
17644;SDS011;8941;51.986;4.340;2022-08-20T00:26:53;2.93;;;2.63;;
17644;SDS011;8941;51.986;4.340;2022-08-20T00:29:46;5.43;;;3.23;;
17644;SDS011;8941;51.986;4.340;2022-08-20T00:32:29;4.53;;;3.47;;
17644;SDS011;8941;51.986;4.340;2022-08-20T00:38:02;2.70;;;2.50;;
17644;SDS011;8941;51.986;4.340;2022-08-20T00:40:42;4.80;;;3.17;;
17644;SDS011;8941;51.986;4.340;2022-08-20T00:43:31;6.13;;;3.03;;
17644;SDS011;8941;51.986;4.340;2022-08-20T00:46:16;9.27;;;3.37;;
17644;SDS011;8941;51.986;4.340;2022-08-20T00:49:13;4.37;;;2.97;;
17644;SDS011;8941;51.986;4.340;2022-08-20T00:52:04;4.07;;;2.80;;
17644;SDS011;8941;51.986;4.340;2022-08-20T00:54:48;3.07;;;2.40;;
17644;SDS011;8941;51.986;4.340;2022-08-20T00:57:34;2.63;;;2.40;;
17644;SDS011;8941;51.986;4.340;2022-08-20T01:00:19;6.07;;;2.63;;
17644;SDS011;8941;51.986;4.340;2022-08-20T01:03:02;2.77;;;2.47;;
17644;SDS011;8941;51.986;4.340;2022-08-20T01:06:10;7.13;;;3.00;;
17644;SDS011;8941;51.986;4.340;2022-08-20T01:08:45;3.80;;;2.53;;
17644;SDS011;8941;51.986;4.340;2022-08-20T01:11:30;3.07;;;2.47;;
17644;SDS011;8941;51.986;4.340;2022-08-20T01:13:59;5.47;;;2.40;;
17644;SDS011;8941;51.986;4.340;2022-08-20T01:16:41;5.80;;;2.43;;
17644;SDS011;8941;51.986;4.340;2022-08-20T01:19:13;9.77;;;3.57;;
17644;SDS011;8941;51.986;4.340;2022-08-20T01:21:43;5.37;;;2.37;;
17644;SDS011;8941;51.986;4.340;2022-08-20T01:24:26;5.30;;;3.07;;
17644;SDS011;8941;51.986;4.340;2022-08-20T01:26:56;3.03;;;2.20;;
17644;SDS011;8941;51.986;4.340;2022-08-20T01:29:28;5.63;;;2.67;;
17644;SDS011;8941;51.986;4.340;2022-08-20T01:31:57;6.33;;;3.20;;
17644;SDS011;8941;51.986;4.340;2022-08-20T01:34:26;5.43;;;2.93;;
17644;SDS011;8941;51.986;4.340;2022-08-20T01:36:54;3.27;;;2.83;;
17644;SDS011;8941;51.986;4.340;2022-08-20T01:39:22;3.87;;;3.00;;
17644;SDS011;8941;51.986;4.340;2022-08-20T01:42:02;7.17;;;3.83;;
17644;SDS011;8941;51.986;4.340;2022-08-20T01:44:29;5.67;;;3.03;;
17644;SDS011;8941;51.986;4.340;2022-08-20T01:46:57;3.63;;;2.87;;
17644;SDS011;8941;51.986;4.340;2022-08-20T01:49:33;3.13;;;2.93;;
17644;SDS011;8941;51.986;4.340;2022-08-20T01:52:02;6.27;;;3.13;;
17644;SDS011;8941;51.986;4.340;2022-08-20T01:54:31;4.87;;;3.10;;
17644;SDS011;8941;51.986;4.340;2022-08-20T01:57:02;4.40;;;3.50;;
17644;SDS011;8941;51.986;4.340;2022-08-20T01:59:29;5.73;;;3.13;;
17644;SDS011;8941;51.986;4.340;2022-08-20T02:01:56;3.20;;;2.97;;
17644;SDS011;8941;51.986;4.340;2022-08-20T02:04:23;6.60;;;3.57;;
17644;SDS011;8941;51.986;4.340;2022-08-20T02:06:51;3.37;;;3.07;;
17644;SDS011;8941;51.986;4.340;2022-08-20T02:09:18;5.83;;;3.13;;
17644;SDS011;8941;51.986;4.340;2022-08-20T02:11:45;6.50;;;2.73;;
17644;SDS011;8941;51.986;4.340;2022-08-20T02:14:15;2.80;;;2.60;;
17644;SDS011;8941;51.986;4.340;2022-08-20T02:16:42;4.67;;;2.80;;
17644;SDS011;8941;51.986;4.340;2022-08-20T02:19:11;4.60;;;3.63;;
17644;SDS011;8941;51.986;4.340;2022-08-20T02:21:40;10.37;;;2.67;;
17644;SDS011;8941;51.986;4.340;2022-08-20T02:24:07;2.87;;;2.67;;
17644;SDS011;8941;51.986;4.340;2022-08-20T02:26:33;7.53;;;2.70;;
17644;SDS011;8941;51.986;4.340;2022-08-20T02:29:03;3.90;;;3.10;;
17644;SDS011;8941;51.986;4.340;2022-08-20T02:31:32;3.07;;;2.57;;
17644;SDS011;8941;51.986;4.340;2022-08-20T02:33:59;4.87;;;2.90;;
17644;SDS011;8941;51.986;4.340;2022-08-20T02:36:25;11.53;;;3.23;;
17644;SDS011;8941;51.986;4.340;2022-08-20T02:38:52;5.80;;;3.10;;
17644;SDS011;8941;51.986;4.340;2022-08-20T02:41:19;3.67;;;3.00;;
17644;SDS011;8941;51.986;4.340;2022-08-20T02:43:46;4.60;;;2.60;;
17644;SDS011;8941;51.986;4.340;2022-08-20T02:46:13;12.90;;;3.67;;
17644;SDS011;8941;51.986;4.340;2022-08-20T02:48:42;4.80;;;3.13;;
17644;SDS011;8941;51.986;4.340;2022-08-20T02:51:08;4.40;;;3.07;;
17644;SDS011;8941;51.986;4.340;2022-08-20T02:53:36;4.23;;;3.70;;
17644;SDS011;8941;51.986;4.340;2022-08-20T02:56:03;6.77;;;3.07;;
17644;SDS011;8941;51.986;4.340;2022-08-20T02:58:29;3.13;;;2.83;;
17644;SDS011;8941;51.986;4.340;2022-08-20T03:00:56;5.43;;;3.50;;
17644;SDS011;8941;51.986;4.340;2022-08-20T03:03:23;3.07;;;2.73;;
17644;SDS011;8941;51.986;4.340;2022-08-20T03:05:52;2.83;;;2.57;;
17644;SDS011;8941;51.986;4.340;2022-08-20T03:08:19;3.53;;;3.23;;
17644;SDS011;8941;51.986;4.340;2022-08-20T03:10:46;6.17;;;2.67;;
17644;SDS011;8941;51.986;4.340;2022-08-20T03:13:14;5.50;;;2.77;;
17644;SDS011;8941;51.986;4.340;2022-08-20T03:15:41;4.20;;;2.93;;
17644;SDS011;8941;51.986;4.340;2022-08-20T03:18:08;5.10;;;3.17;;
17644;SDS011;8941;51.986;4.340;2022-08-20T03:20:35;4.07;;;2.97;;
17644;SDS011;8941;51.986;4.340;2022-08-20T03:23:03;4.70;;;2.77;;
17644;SDS011;8941;51.986;4.340;2022-08-20T03:25:30;4.07;;;3.50;;
17644;SDS011;8941;51.986;4.340;2022-08-20T03:27:57;4.27;;;3.47;;
17644;SDS011;8941;51.986;4.340;2022-08-20T03:30:24;3.53;;;3.23;;
17644;SDS011;8941;51.986;4.340;2022-08-20T03:32:51;2.87;;;2.67;;
17644;SDS011;8941;51.986;4.340;2022-08-20T03:35:19;3.10;;;2.90;;
17644;SDS011;8941;51.986;4.340;2022-08-20T03:37:45;5.23;;;2.67;;
17644;SDS011;8941;51.986;4.340;2022-08-20T03:40:14;2.87;;;2.67;;
17644;SDS011;8941;51.986;4.340;2022-08-20T03:42:41;4.40;;;2.97;;
17644;SDS011;8941;51.986;4.340;2022-08-20T03:45:08;4.40;;;3.23;;
17644;SDS011;8941;51.986;4.340;2022-08-20T03:47:36;4.17;;;3.33;;
17644;SDS011;8941;51.986;4.340;2022-08-20T03:50:03;4.43;;;2.47;;
17644;SDS011;8941;51.986;4.340;2022-08-20T03:52:30;2.80;;;2.60;;
17644;SDS011;8941;51.986;4.340;2022-08-20T03:54:56;5.03;;;2.80;;
17644;SDS011;8941;51.986;4.340;2022-08-20T03:57:24;5.40;;;3.27;;
17644;SDS011;8941;51.986;4.340;2022-08-20T03:59:51;3.47;;;3.17;;
17644;SDS011;8941;51.986;4.340;2022-08-20T04:02:18;4.20;;;3.67;;
17644;SDS011;8941;51.986;4.340;2022-08-20T04:04:44;2.53;;;2.43;;
17644;SDS011;8941;51.986;4.340;2022-08-20T04:07:12;3.43;;;3.23;;
17644;SDS011;8941;51.986;4.340;2022-08-20T04:09:38;3.90;;;3.27;;
17644;SDS011;8941;51.986;4.340;2022-08-20T04:12:05;3.43;;;3.10;;
17644;SDS011;8941;51.986;4.340;2022-08-20T04:14:34;4.50;;;3.70;;
17644;SDS011;8941;51.986;4.340;2022-08-20T04:17:03;7.67;;;3.93;;
17644;SDS011;8941;51.986;4.340;2022-08-20T04:19:29;3.90;;;3.50;;
17644;SDS011;8941;51.986;4.340;2022-08-20T04:21:57;11.43;;;3.40;;
17644;SDS011;8941;51.986;4.340;2022-08-20T04:24:24;4.47;;;2.93;;
17644;SDS011;8941;51.986;4.340;2022-08-20T04:26:51;4.30;;;3.57;;
17644;SDS011;8941;51.986;4.340;2022-08-20T04:29:19;5.43;;;3.50;;
17644;SDS011;8941;51.986;4.340;2022-08-20T04:31:47;4.87;;;3.23;;
17644;SDS011;8941;51.986;4.340;2022-08-20T04:34:13;4.80;;;3.63;;
17644;SDS011;8941;51.986;4.340;2022-08-20T04:36:43;4.20;;;3.33;;
17644;SDS011;8941;51.986;4.340;2022-08-20T04:39:11;4.40;;;3.27;;
17644;SDS011;8941;51.986;4.340;2022-08-20T04:41:38;3.17;;;2.97;;
17644;SDS011;8941;51.986;4.340;2022-08-20T04:44:03;3.23;;;2.93;;
17644;SDS011;8941;51.986;4.340;2022-08-20T04:46:30;5.07;;;3.20;;
17644;SDS011;8941;51.986;4.340;2022-08-20T04:48:58;3.57;;;3.33;;
17644;SDS011;8941;51.986;4.340;2022-08-20T04:51:27;4.83;;;3.70;;
17644;SDS011;8941;51.986;4.340;2022-08-20T04:53:54;6.63;;;3.73;;
17644;SDS011;8941;51.986;4.340;2022-08-20T04:56:21;4.17;;;3.83;;
17644;SDS011;8941;51.986;4.340;2022-08-20T04:58:48;4.83;;;4.33;;
17644;SDS011;8941;51.986;4.340;2022-08-20T05:01:15;4.33;;;4.03;;
17644;SDS011;8941;51.986;4.340;2022-08-20T05:03:42;4.37;;;3.97;;
17644;SDS011;8941;51.986;4.340;2022-08-20T05:06:10;4.60;;;4.30;;
17644;SDS011;8941;51.986;4.340;2022-08-20T05:08:37;5.47;;;4.97;;
17644;SDS011;8941;51.986;4.340;2022-08-20T05:11:04;4.97;;;4.50;;
17644;SDS011;8941;51.986;4.340;2022-08-20T05:13:33;6.20;;;5.07;;
17644;SDS011;8941;51.986;4.340;2022-08-20T05:16:00;6.80;;;3.87;;
17644;SDS011;8941;51.986;4.340;2022-08-20T05:18:29;4.63;;;3.70;;
17644;SDS011;8941;51.986;4.340;2022-08-20T05:20:57;10.13;;;4.23;;
17644;SDS011;8941;51.986;4.340;2022-08-20T05:23:31;5.53;;;4.17;;
17644;SDS011;8941;51.986;4.340;2022-08-20T05:25:58;6.37;;;5.03;;
17644;SDS011;8941;51.986;4.340;2022-08-20T05:28:26;4.43;;;4.10;;
17644;SDS011;8941;51.986;4.340;2022-08-20T05:30:56;7.20;;;4.30;;
17644;SDS011;8941;51.986;4.340;2022-08-20T05:33:23;5.40;;;4.87;;
17644;SDS011;8941;51.986;4.340;2022-08-20T05:35:50;4.90;;;4.50;;
17644;SDS011;8941;51.986;4.340;2022-08-20T05:38:18;6.17;;;4.37;;
17644;SDS011;8941;51.986;4.340;2022-08-20T05:40:46;7.00;;;5.03;;
17644;SDS011;8941;51.986;4.340;2022-08-20T05:43:13;6.80;;;5.50;;
17644;SDS011;8941;51.986;4.340;2022-08-20T05:45:40;6.70;;;5.40;;
17644;SDS011;8941;51.986;4.340;2022-08-20T05:48:08;5.70;;;5.20;;
17644;SDS011;8941;51.986;4.340;2022-08-20T05:50:35;7.40;;;4.70;;
17644;SDS011;8941;51.986;4.340;2022-08-20T05:53:02;10.90;;;6.03;;
17644;SDS011;8941;51.986;4.340;2022-08-20T05:55:29;8.60;;;5.30;;
17644;SDS011;8941;51.986;4.340;2022-08-20T05:57:57;6.03;;;4.50;;
17644;SDS011;8941;51.986;4.340;2022-08-20T06:00:24;5.07;;;4.60;;
17644;SDS011;8941;51.986;4.340;2022-08-20T06:02:50;4.77;;;4.33;;
17644;SDS011;8941;51.986;4.340;2022-08-20T06:05:34;5.73;;;4.27;;
17644;SDS011;8941;51.986;4.340;2022-08-20T06:08:02;6.37;;;4.50;;
17644;SDS011;8941;51.986;4.340;2022-08-20T06:10:29;4.53;;;4.23;;
17644;SDS011;8941;51.986;4.340;2022-08-20T06:12:57;7.30;;;5.80;;
17644;SDS011;8941;51.986;4.340;2022-08-20T06:15:24;6.20;;;5.63;;
17644;SDS011;8941;51.986;4.340;2022-08-20T06:17:50;5.37;;;4.90;;
17644;SDS011;8941;51.986;4.340;2022-08-20T06:20:17;6.40;;;5.90;;
17644;SDS011;8941;51.986;4.340;2022-08-20T06:22:43;8.27;;;5.63;;
17644;SDS011;8941;51.986;4.340;2022-08-20T06:25:10;5.57;;;5.13;;
17644;SDS011;8941;51.986;4.340;2022-08-20T06:27:37;5.43;;;4.40;;
17644;SDS011;8941;51.986;4.340;2022-08-20T06:30:06;4.90;;;4.53;;
17644;SDS011;8941;51.986;4.340;2022-08-20T06:32:33;5.07;;;4.53;;
17644;SDS011;8941;51.986;4.340;2022-08-20T06:35:00;7.10;;;5.27;;
17644;SDS011;8941;51.986;4.340;2022-08-20T06:37:27;10.70;;;4.03;;
17644;SDS011;8941;51.986;4.340;2022-08-20T06:39:54;5.13;;;4.60;;
17644;SDS011;8941;51.986;4.340;2022-08-20T06:42:21;7.23;;;4.20;;
17644;SDS011;8941;51.986;4.340;2022-08-20T06:44:47;5.13;;;3.93;;
17644;SDS011;8941;51.986;4.340;2022-08-20T06:47:16;6.40;;;3.40;;
17644;SDS011;8941;51.986;4.340;2022-08-20T06:49:43;3.30;;;3.00;;
17644;SDS011;8941;51.986;4.340;2022-08-20T06:52:10;8.33;;;3.97;;
17644;SDS011;8941;51.986;4.340;2022-08-20T06:54:40;5.47;;;2.83;;
17644;SDS011;8941;51.986;4.340;2022-08-20T06:57:06;9.37;;;4.67;;
17644;SDS011;8941;51.986;4.340;2022-08-20T06:59:33;6.20;;;3.57;;
17644;SDS011;8941;51.986;4.340;2022-08-20T07:02:00;5.83;;;3.37;;
17644;SDS011;8941;51.986;4.340;2022-08-20T07:04:29;5.30;;;3.57;;
17644;SDS011;8941;51.986;4.340;2022-08-20T07:06:59;4.47;;;3.03;;
17644;SDS011;8941;51.986;4.340;2022-08-20T07:09:31;6.50;;;2.60;;
17644;SDS011;8941;51.986;4.340;2022-08-20T07:12:04;3.83;;;2.42;;
17644;SDS011;8941;51.986;4.340;2022-08-20T07:14:34;6.28;;;2.88;;
17644;SDS011;8941;51.986;4.340;2022-08-20T07:17:01;9.38;;;4.07;;
17644;SDS011;8941;51.986;4.340;2022-08-20T07:19:29;5.00;;;2.13;;
17644;SDS011;8941;51.986;4.340;2022-08-20T07:21:57;6.25;;;3.25;;
17644;SDS011;8941;51.986;4.340;2022-08-20T07:24:27;6.38;;;2.67;;
17644;SDS011;8941;51.986;4.340;2022-08-20T07:26:54;6.60;;;2.97;;
17644;SDS011;8941;51.986;4.340;2022-08-20T07:29:21;3.10;;;2.58;;
17644;SDS011;8941;51.986;4.340;2022-08-20T07:32:07;3.20;;;2.55;;
17644;SDS011;8941;51.986;4.340;2022-08-20T07:34:52;7.07;;;2.10;;
17644;SDS011;8941;51.986;4.340;2022-08-20T07:37:19;4.07;;;2.45;;
17644;SDS011;8941;51.986;4.340;2022-08-20T07:39:47;6.38;;;1.73;;
17644;SDS011;8941;51.986;4.340;2022-08-20T07:42:14;5.78;;;1.60;;
17644;SDS011;8941;51.986;4.340;2022-08-20T07:44:41;4.30;;;1.95;;
17644;SDS011;8941;51.986;4.340;2022-08-20T07:47:07;4.55;;;2.05;;
17644;SDS011;8941;51.986;4.340;2022-08-20T07:49:35;4.38;;;1.70;;
17644;SDS011;8941;51.986;4.340;2022-08-20T07:52:04;5.15;;;2.47;;
17644;SDS011;8941;51.986;4.340;2022-08-20T07:54:30;8.25;;;2.80;;
17644;SDS011;8941;51.986;4.340;2022-08-20T07:56:59;3.10;;;1.63;;
17644;SDS011;8941;51.986;4.340;2022-08-20T07:59:26;6.65;;;2.30;;
17644;SDS011;8941;51.986;4.340;2022-08-20T08:01:53;6.47;;;2.45;;
17644;SDS011;8941;51.986;4.340;2022-08-20T08:04:19;3.88;;;1.73;;
17644;SDS011;8941;51.986;4.340;2022-08-20T08:06:48;4.90;;;2.75;;
17644;SDS011;8941;51.986;4.340;2022-08-20T08:09:19;6.68;;;3.55;;
17644;SDS011;8941;51.986;4.340;2022-08-20T08:11:49;6.50;;;2.60;;
17644;SDS011;8941;51.986;4.340;2022-08-20T08:14:17;8.30;;;2.47;;
17644;SDS011;8941;51.986;4.340;2022-08-20T08:16:50;8.27;;;2.25;;
17644;SDS011;8941;51.986;4.340;2022-08-20T08:19:27;5.07;;;2.80;;
17644;SDS011;8941;51.986;4.340;2022-08-20T08:22:05;6.03;;;2.53;;
17644;SDS011;8941;51.986;4.340;2022-08-20T08:24:37;6.78;;;2.88;;
17644;SDS011;8941;51.986;4.340;2022-08-20T08:27:04;7.40;;;2.83;;
17644;SDS011;8941;51.986;4.340;2022-08-20T08:29:32;4.82;;;2.40;;
17644;SDS011;8941;51.986;4.340;2022-08-20T08:32:00;3.17;;;2.13;;
17644;SDS011;8941;51.986;4.340;2022-08-20T08:34:26;4.07;;;2.63;;
17644;SDS011;8941;51.986;4.340;2022-08-20T08:36:56;4.43;;;1.80;;
17644;SDS011;8941;51.986;4.340;2022-08-20T08:39:22;5.38;;;2.47;;
17644;SDS011;8941;51.986;4.340;2022-08-20T08:41:50;5.25;;;3.03;;
17644;SDS011;8941;51.986;4.340;2022-08-20T08:44:19;7.07;;;2.50;;
17644;SDS011;8941;51.986;4.340;2022-08-20T08:46:52;7.78;;;2.38;;
17644;SDS011;8941;51.986;4.340;2022-08-20T08:49:31;4.35;;;2.50;;
17644;SDS011;8941;51.986;4.340;2022-08-20T08:52:00;6.30;;;2.45;;
17644;SDS011;8941;51.986;4.340;2022-08-20T08:54:29;4.00;;;1.98;;
17644;SDS011;8941;51.986;4.340;2022-08-20T08:56:57;4.18;;;2.33;;
17644;SDS011;8941;51.986;4.340;2022-08-20T08:59:25;5.28;;;2.30;;
17644;SDS011;8941;51.986;4.340;2022-08-20T09:01:53;5.57;;;2.35;;
17644;SDS011;8941;51.986;4.340;2022-08-20T09:04:20;5.47;;;2.13;;
17644;SDS011;8941;51.986;4.340;2022-08-20T09:06:47;3.70;;;1.98;;
17644;SDS011;8941;51.986;4.340;2022-08-20T09:09:18;6.40;;;2.22;;
17644;SDS011;8941;51.986;4.340;2022-08-20T09:11:46;4.85;;;1.90;;
17644;SDS011;8941;51.986;4.340;2022-08-20T09:14:15;5.63;;;2.25;;
17644;SDS011;8941;51.986;4.340;2022-08-20T09:16:41;6.60;;;2.13;;
17644;SDS011;8941;51.986;4.340;2022-08-20T09:19:10;5.05;;;2.38;;
17644;SDS011;8941;51.986;4.340;2022-08-20T09:21:36;7.18;;;2.67;;
17644;SDS011;8941;51.986;4.340;2022-08-20T09:24:03;3.72;;;2.28;;
17644;SDS011;8941;51.986;4.340;2022-08-20T09:26:29;5.82;;;1.95;;
17644;SDS011;8941;51.986;4.340;2022-08-20T09:28:56;6.95;;;2.22;;
17644;SDS011;8941;51.986;4.340;2022-08-20T09:31:26;4.03;;;2.17;;
17644;SDS011;8941;51.986;4.340;2022-08-20T09:33:53;8.38;;;2.15;;
17644;SDS011;8941;51.986;4.340;2022-08-20T09:36:19;3.90;;;1.45;;
17644;SDS011;8941;51.986;4.340;2022-08-20T09:38:46;3.78;;;1.88;;
17644;SDS011;8941;51.986;4.340;2022-08-20T09:41:12;4.38;;;2.15;;
17644;SDS011;8941;51.986;4.340;2022-08-20T09:43:39;5.32;;;2.45;;
17644;SDS011;8941;51.986;4.340;2022-08-20T09:46:05;6.55;;;2.08;;
17644;SDS011;8941;51.986;4.340;2022-08-20T09:48:33;2.90;;;1.70;;
17644;SDS011;8941;51.986;4.340;2022-08-20T09:51:00;3.33;;;1.65;;
17644;SDS011;8941;51.986;4.340;2022-08-20T09:53:26;5.93;;;2.13;;
17644;SDS011;8941;51.986;4.340;2022-08-20T09:55:53;3.05;;;1.98;;
17644;SDS011;8941;51.986;4.340;2022-08-20T09:58:21;6.32;;;2.10;;
17644;SDS011;8941;51.986;4.340;2022-08-20T10:00:49;5.93;;;1.80;;
17644;SDS011;8941;51.986;4.340;2022-08-20T10:03:17;3.22;;;2.38;;
17644;SDS011;8941;51.986;4.340;2022-08-20T10:05:45;5.72;;;2.50;;
17644;SDS011;8941;51.986;4.340;2022-08-20T10:08:11;5.07;;;2.83;;
17644;SDS011;8941;51.986;4.340;2022-08-20T10:10:38;4.13;;;2.40;;
17644;SDS011;8941;51.986;4.340;2022-08-20T10:13:05;4.43;;;2.25;;
17644;SDS011;8941;51.986;4.340;2022-08-20T10:15:31;4.68;;;2.35;;
17644;SDS011;8941;51.986;4.340;2022-08-20T10:17:58;11.93;;;2.08;;
17644;SDS011;8941;51.986;4.340;2022-08-20T10:20:28;9.68;;;1.73;;
17644;SDS011;8941;51.986;4.340;2022-08-20T10:22:55;8.32;;;2.38;;
17644;SDS011;8941;51.986;4.340;2022-08-20T10:25:22;3.80;;;1.48;;
17644;SDS011;8941;51.986;4.340;2022-08-20T10:27:48;2.58;;;1.55;;
17644;SDS011;8941;51.986;4.340;2022-08-20T10:30:15;3.20;;;1.48;;
17644;SDS011;8941;51.986;4.340;2022-08-20T10:32:41;1.50;;;1.27;;
17644;SDS011;8941;51.986;4.340;2022-08-20T10:35:08;4.22;;;1.60;;
17644;SDS011;8941;51.986;4.340;2022-08-20T10:37:34;10.98;;;3.10;;
17644;SDS011;8941;51.986;4.340;2022-08-20T10:40:03;3.03;;;2.15;;
17644;SDS011;8941;51.986;4.340;2022-08-20T10:42:29;4.85;;;2.00;;
17644;SDS011;8941;51.986;4.340;2022-08-20T10:44:56;2.67;;;1.58;;
17644;SDS011;8941;51.986;4.340;2022-08-20T10:47:23;3.92;;;2.22;;
17644;SDS011;8941;51.986;4.340;2022-08-20T10:49:50;5.20;;;2.60;;
17644;SDS011;8941;51.986;4.340;2022-08-20T10:52:17;3.22;;;1.70;;
17644;SDS011;8941;51.986;4.340;2022-08-20T10:54:44;6.28;;;2.53;;
17644;SDS011;8941;51.986;4.340;2022-08-20T10:57:13;6.90;;;2.80;;
17644;SDS011;8941;51.986;4.340;2022-08-20T10:59:41;9.82;;;3.10;;
17644;SDS011;8941;51.986;4.340;2022-08-20T11:02:07;4.85;;;2.75;;
17644;SDS011;8941;51.986;4.340;2022-08-20T11:04:34;3.70;;;1.75;;
17644;SDS011;8941;51.986;4.340;2022-08-20T11:07:09;2.88;;;1.70;;
17644;SDS011;8941;51.986;4.340;2022-08-20T11:09:35;3.80;;;1.48;;
17644;SDS011;8941;51.986;4.340;2022-08-20T11:12:02;4.00;;;1.40;;
17644;SDS011;8941;51.986;4.340;2022-08-20T11:14:30;3.92;;;2.20;;
17644;SDS011;8941;51.986;4.340;2022-08-20T11:16:58;4.53;;;1.65;;
17644;SDS011;8941;51.986;4.340;2022-08-20T11:19:25;2.50;;;1.50;;
17644;SDS011;8941;51.986;4.340;2022-08-20T11:21:52;2.97;;;1.55;;
17644;SDS011;8941;51.986;4.340;2022-08-20T11:24:18;4.22;;;1.75;;
17644;SDS011;8941;51.986;4.340;2022-08-20T11:26:45;4.25;;;1.50;;
17644;SDS011;8941;51.986;4.340;2022-08-20T11:29:12;5.95;;;2.60;;
17644;SDS011;8941;51.986;4.340;2022-08-20T11:31:41;4.72;;;2.53;;
17644;SDS011;8941;51.986;4.340;2022-08-20T11:34:08;6.63;;;2.00;;
17644;SDS011;8941;51.986;4.340;2022-08-20T11:36:34;2.75;;;1.95;;
17644;SDS011;8941;51.986;4.340;2022-08-20T11:39:02;2.33;;;2.10;;
17644;SDS011;8941;51.986;4.340;2022-08-20T11:41:29;4.40;;;2.28;;
17644;SDS011;8941;51.986;4.340;2022-08-20T11:43:56;3.58;;;1.83;;
17644;SDS011;8941;51.986;4.340;2022-08-20T11:46:22;4.70;;;2.42;;
17644;SDS011;8941;51.986;4.340;2022-08-20T11:48:51;2.70;;;2.13;;
17644;SDS011;8941;51.986;4.340;2022-08-20T11:51:18;4.13;;;1.98;;
17644;SDS011;8941;51.986;4.340;2022-08-20T11:53:46;6.85;;;2.50;;
17644;SDS011;8941;51.986;4.340;2022-08-20T11:56:13;4.45;;;2.13;;
17644;SDS011;8941;51.986;4.340;2022-08-20T11:58:40;3.47;;;2.33;;
17644;SDS011;8941;51.986;4.340;2022-08-20T12:01:07;5.68;;;1.83;;
17644;SDS011;8941;51.986;4.340;2022-08-20T12:03:35;6.10;;;2.35;;
17644;SDS011;8941;51.986;4.340;2022-08-20T12:06:03;4.55;;;2.20;;
17644;SDS011;8941;51.986;4.340;2022-08-20T12:08:30;3.00;;;2.00;;
17644;SDS011;8941;51.986;4.340;2022-08-20T12:10:57;2.85;;;2.22;;
17644;SDS011;8941;51.986;4.340;2022-08-20T12:13:24;3.90;;;2.15;;
17644;SDS011;8941;51.986;4.340;2022-08-20T12:15:52;1.88;;;1.77;;
17644;SDS011;8941;51.986;4.340;2022-08-20T12:18:18;5.10;;;2.00;;
17644;SDS011;8941;51.986;4.340;2022-08-20T12:20:45;7.85;;;2.03;;
17644;SDS011;8941;51.986;4.340;2022-08-20T12:23:13;2.17;;;1.98;;
17644;SDS011;8941;51.986;4.340;2022-08-20T12:25:39;3.78;;;2.47;;
17644;SDS011;8941;51.986;4.340;2022-08-20T12:28:06;3.20;;;1.60;;
17644;SDS011;8941;51.986;4.340;2022-08-20T12:30:33;6.15;;;2.28;;
17644;SDS011;8941;51.986;4.340;2022-08-20T12:32:59;4.60;;;2.42;;
17644;SDS011;8941;51.986;4.340;2022-08-20T12:35:26;9.82;;;1.92;;
17644;SDS011;8941;51.986;4.340;2022-08-20T12:37:53;4.57;;;1.98;;
17644;SDS011;8941;51.986;4.340;2022-08-20T12:40:22;3.55;;;1.55;;
17644;SDS011;8941;51.986;4.340;2022-08-20T12:42:52;2.65;;;1.85;;
17644;SDS011;8941;51.986;4.340;2022-08-20T12:45:33;2.92;;;1.60;;
17644;SDS011;8941;51.986;4.340;2022-08-20T12:48:00;3.08;;;1.50;;
17644;SDS011;8941;51.986;4.340;2022-08-20T12:50:27;5.68;;;2.47;;
17644;SDS011;8941;51.986;4.340;2022-08-20T12:52:57;3.13;;;1.50;;
17644;SDS011;8941;51.986;4.340;2022-08-20T12:55:25;5.63;;;2.10;;
17644;SDS011;8941;51.986;4.340;2022-08-20T12:57:54;2.80;;;1.45;;
17644;SDS011;8941;51.986;4.340;2022-08-20T13:00:24;3.25;;;1.63;;
17644;SDS011;8941;51.986;4.340;2022-08-20T13:02:52;3.22;;;2.15;;
17644;SDS011;8941;51.986;4.340;2022-08-20T13:05:19;7.53;;;2.03;;
17644;SDS011;8941;51.986;4.340;2022-08-20T13:07:45;3.42;;;2.15;;
17644;SDS011;8941;51.986;4.340;2022-08-20T13:10:13;5.80;;;2.88;;
17644;SDS011;8941;51.986;4.340;2022-08-20T13:12:42;4.75;;;1.98;;
17644;SDS011;8941;51.986;4.340;2022-08-20T13:15:12;2.13;;;1.98;;
17644;SDS011;8941;51.986;4.340;2022-08-20T13:17:38;3.95;;;2.28;;
17644;SDS011;8941;51.986;4.340;2022-08-20T13:20:06;4.43;;;1.77;;
17644;SDS011;8941;51.986;4.340;2022-08-20T13:22:36;3.88;;;1.83;;
17644;SDS011;8941;51.986;4.340;2022-08-20T13:25:03;7.63;;;2.30;;
17644;SDS011;8941;51.986;4.340;2022-08-20T13:27:30;3.30;;;2.05;;
17644;SDS011;8941;51.986;4.340;2022-08-20T13:29:58;6.45;;;1.75;;
17644;SDS011;8941;51.986;4.340;2022-08-20T13:32:25;6.25;;;2.00;;
17644;SDS011;8941;51.986;4.340;2022-08-20T13:34:52;5.50;;;1.67;;
17644;SDS011;8941;51.986;4.340;2022-08-20T13:37:19;3.58;;;1.63;;
17644;SDS011;8941;51.986;4.340;2022-08-20T13:39:46;6.03;;;2.10;;
17644;SDS011;8941;51.986;4.340;2022-08-20T13:42:13;4.57;;;1.85;;
17644;SDS011;8941;51.986;4.340;2022-08-20T13:44:39;4.22;;;1.67;;
17644;SDS011;8941;51.986;4.340;2022-08-20T13:47:14;3.67;;;1.73;;
17644;SDS011;8941;51.986;4.340;2022-08-20T13:49:40;2.00;;;1.65;;
17644;SDS011;8941;51.986;4.340;2022-08-20T13:52:07;2.40;;;1.65;;
17644;SDS011;8941;51.986;4.340;2022-08-20T13:54:33;4.93;;;1.80;;
17644;SDS011;8941;51.986;4.340;2022-08-20T13:57:04;3.13;;;1.40;;
17644;SDS011;8941;51.986;4.340;2022-08-20T13:59:30;2.63;;;1.23;;
17644;SDS011;8941;51.986;4.340;2022-08-20T14:01:59;4.50;;;1.35;;
17644;SDS011;8941;51.986;4.340;2022-08-20T14:04:27;2.17;;;1.73;;
17644;SDS011;8941;51.986;4.340;2022-08-20T14:06:53;4.13;;;1.98;;
17644;SDS011;8941;51.986;4.340;2022-08-20T14:09:20;4.18;;;2.50;;
17644;SDS011;8941;51.986;4.340;2022-08-20T14:11:46;4.55;;;2.33;;
17644;SDS011;8941;51.986;4.340;2022-08-20T14:14:13;3.25;;;2.15;;
17644;SDS011;8941;51.986;4.340;2022-08-20T14:16:39;5.10;;;1.40;;
17644;SDS011;8941;51.986;4.340;2022-08-20T14:19:05;4.00;;;1.92;;
17644;SDS011;8941;51.986;4.340;2022-08-20T14:21:33;3.08;;;1.67;;
17644;SDS011;8941;51.986;4.340;2022-08-20T14:24:00;6.13;;;2.53;;
17644;SDS011;8941;51.986;4.340;2022-08-20T14:26:30;3.03;;;1.80;;
17644;SDS011;8941;51.986;4.340;2022-08-20T14:28:59;2.60;;;1.30;;
17644;SDS011;8941;51.986;4.340;2022-08-20T14:31:30;4.57;;;2.20;;
17644;SDS011;8941;51.986;4.340;2022-08-20T14:33:57;2.75;;;2.00;;
17644;SDS011;8941;51.986;4.340;2022-08-20T14:36:26;3.17;;;1.38;;
17644;SDS011;8941;51.986;4.340;2022-08-20T14:38:56;5.78;;;1.30;;
17644;SDS011;8941;51.986;4.340;2022-08-20T14:41:23;2.28;;;1.75;;
17644;SDS011;8941;51.986;4.340;2022-08-20T14:43:49;7.88;;;2.50;;
17644;SDS011;8941;51.986;4.340;2022-08-20T14:46:16;11.68;;;2.47;;
17644;SDS011;8941;51.986;4.340;2022-08-20T14:48:42;5.10;;;2.63;;
17644;SDS011;8941;51.986;4.340;2022-08-20T14:51:09;9.88;;;2.60;;
17644;SDS011;8941;51.986;4.340;2022-08-20T14:53:35;6.35;;;2.80;;
17644;SDS011;8941;51.986;4.340;2022-08-20T14:56:03;2.95;;;2.00;;
17644;SDS011;8941;51.986;4.340;2022-08-20T14:58:30;2.85;;;1.83;;
17644;SDS011;8941;51.986;4.340;2022-08-20T15:00:56;4.72;;;1.58;;
17644;SDS011;8941;51.986;4.340;2022-08-20T15:03:23;2.00;;;1.38;;
17644;SDS011;8941;51.986;4.340;2022-08-20T15:05:54;2.78;;;1.60;;
17644;SDS011;8941;51.986;4.340;2022-08-20T15:08:20;1.95;;;1.48;;
17644;SDS011;8941;51.986;4.340;2022-08-20T15:10:47;3.92;;;1.85;;
17644;SDS011;8941;51.986;4.340;2022-08-20T15:13:15;1.88;;;1.77;;
17644;SDS011;8941;51.986;4.340;2022-08-20T15:15:41;2.35;;;1.45;;
17644;SDS011;8941;51.986;4.340;2022-08-20T15:18:08;1.92;;;0.85;;
17644;SDS011;8941;51.986;4.340;2022-08-20T15:20:35;3.15;;;2.83;;